This is the latest recevied weather packets stored in our database for station/object WB6ANP. If no packets are shown the sender has not sent any weather packets the latest 10 day(s).
| Time | Temp. | Humidity | Pressure | Rain* | Wind** | Luminosity | Snow |
|---|---|---|---|---|---|---|---|
| 1777235720 | 27.78° C | 71% | 1006.2 hPa | 0 mm | - | 646 W/m² | - |
| 1777235418 | 27.78° C | 71% | 1006.5 hPa | 0 mm | - | 360 W/m² | - |
| 1777235114 | 28.33° C | 69% | 1006.6 hPa | 0 mm | - | 780 W/m² | - |
| 1777234809 | 28.89° C | 68% | 1006.4 hPa | 0 mm | - | 850 W/m² | - |
| 1777234506 | 28.33° C | 72% | 1006.6 hPa | 0 mm | - | 807 W/m² | - |
| 1777234206 | 27.78° C | 71% | 1006.7 hPa | 0 mm | - | 831 W/m² | - |
| 1777233902 | 27.78° C | 71% | 1007.1 hPa | 0 mm | - | 776 W/m² | - |
| 1777233598 | 27.78° C | 73% | 1007 hPa | 0 mm | - | 296 W/m² | - |
| 1777233298 | 28.33° C | 70% | 1006.9 hPa | 0 mm | - | 263 W/m² | - |
| 1777232994 | 27.22° C | 73% | 1007 hPa | 0 mm | - | 970 W/m² | - |
| 1777232691 | 27.78° C | 72% | 1006.9 hPa | 0 mm | - | 320 W/m² | - |
| 1777232389 | 28.33° C | 69% | 1007.2 hPa | 0 mm | - | 474 W/m² | - |
| 1777232085 | 27.78° C | 73% | 1007.1 hPa | 0 mm | - | 913 W/m² | - |
| 1777231783 | 27.78° C | 72% | 1007.2 hPa | 0 mm | - | 635 W/m² | - |
| 1777231479 | 27.22° C | 74% | 1007.4 hPa | 0 mm | - | 689 W/m² | - |
| 1777231176 | 26.67° C | 74% | 1007.3 hPa | 0 mm | - | 939 W/m² | - |
| 1777230871 | 27.22° C | 74% | 1007 hPa | 0 mm | - | 984 W/m² | - |
| 1777230566 | 26.67° C | 75% | 1007.3 hPa | 0 mm | - | 591 W/m² | - |
| 1777230263 | 27.22° C | 75% | 1007.3 hPa | 0 mm | - | 1005 W/m² | - |
| 1777229960 | 27.22° C | 74% | 1007.2 hPa | 0 mm | - | 228 W/m² | - |
| 1777229656 | 26.67° C | 74% | 1007.2 hPa | 0 mm | - | 990 W/m² | - |
| 1777229353 | 27.22° C | 76% | 1007.5 hPa | 0 mm | - | 1031 W/m² | - |
| 1777229050 | 26.67° C | 76% | 1007.7 hPa | 0 mm | - | 160 W/m² | - |
| 1777228747 | 26.67° C | 77% | 1007.7 hPa | 0 mm | - | 449 W/m² | - |
| 1777228443 | 26.67° C | 77% | 1007.8 hPa | 0 mm | - | 412 W/m² | - |
* Rain latest hour (hover to see other rain measurements)
** Current wind speed in m/s (hover to see current wind gust speed)